Accueil
METAR-TAF:

METAR-TAF

Aéroports :

Tokyo-Haneda, Japon

Aéroport international de Tokyo-Haneda

latitude: 35-33N, longitude: 139-47E, altitude: 5 m

Observation

Le bulletin a été fait il y a 23 minutes, à 15:00 UTC
Vent 8 kt de ouest/sud-ouest
Température 25°C
Humidité 69%
Pression 1009 hPa
Visibilité 10 km ou plus
pas de nuages en-dessous de 1500 mètres et pas de cumulonimbus.

METAR: RJTT 191500Z 24008KT CAVOK 25/19 Q1009 BECMG 30006KT RMK A2980

Heure: 00:23 (15:23 UTC)

Prévision

Le bulletin a été fait il y a 4 heures et 18 minutes, à 11:05 UTC
Prévision valable du 19 à 12 UTC au 20 à 18 UTC
Vent 6 kt de nord/nord-ouest
Visibilité 10 km ou plus
Quelques nuages à une hauteur de 2000 ft
Evoluant progressivement
du 19 à 22 UTC au 20 à 00 UTC
Vent 8 kt de est/sud-est
Evoluant progressivement
du 20 à 00 UTC au 20 à 03 UTC
Vent 12 kt de sud

TAF: RJTT 191105Z 1912/2018 34006KT 9999 FEW020 BECMG 1922/2000 12008KT BECMG 2000/2003 19012KT

Observations et prévisions météorologiques de plus de 4000 aéroports (messages METAR et TAF).

Les stations disponibles sont représentées par des disques jaunes et rouges sur la carte.

Passer la souris dessus pour voir le nom de la station.

Cliquer dessus pour voir les observations et prévisions météorologiques.

Pour changer de carte: cliquez sur les boutons verts avec une croix noire pour zoomer, sur le bouton vert avec un tiret pour effectuer un zoom arrière, ou sur les flèches vertes pour les cartes adjacentes.


METAR-TAF: